createdAt,value
2023-04-25T00:24:14.999Z,0.04
2023-04-25T00:58:48.148Z,0.03
2023-04-25T01:22:50.438Z,0.04
2023-04-25T01:24:59.404Z,0.03
2023-04-25T02:05:00.120Z,0.04
2023-04-25T02:07:19.726Z,0.03
2023-04-25T02:12:19.515Z,0.05
2023-04-25T02:14:59.308Z,0.03
2023-04-25T02:17:24.804Z,0.02
2023-04-25T03:08:25.116Z,0.03
2023-04-25T03:22:52.033Z,0.04
2023-04-25T03:27:53.101Z,0.05
2023-04-25T03:30:33.807Z,0.07
2023-04-25T03:33:00.518Z,0.09
2023-04-25T03:35:13.119Z,0.12
2023-04-25T03:37:11.975Z,0.16
2023-04-25T03:39:58.788Z,0.27
2023-04-25T03:42:31.574Z,0.38
2023-04-25T03:44:50.272Z,0.51
2023-04-25T03:46:55.214Z,0.71
2023-04-25T03:49:48.119Z,1.1
2023-04-25T03:52:26.931Z,1.81
2023-04-25T03:54:52.044Z,2.94
2023-04-25T03:57:03.130Z,4.38
2023-04-25T03:58:59.596Z,6.82
2023-04-25T04:01:44.642Z,12.16
2023-04-25T04:04:16.174Z,17.61
2023-04-25T04:06:32.691Z,24.35
2023-04-25T04:08:35.930Z,30.92
2023-04-25T04:11:27.077Z,44.58
2023-04-25T04:14:04.190Z,60.08
2023-04-25T04:16:27.325Z,78.98
2023-04-25T04:18:36.554Z,98.08
2023-04-25T04:21:33.754Z,112.28
2023-04-25T04:24:16.921Z,123.08
2023-04-25T04:26:46.358Z,117.16
2023-04-25T04:29:01.703Z,126
2023-04-25T04:31:03.011Z,131.72
2023-04-25T04:33:52.677Z,146.88
2023-04-25T04:36:27.966Z,176.1
2023-04-25T04:38:49.368Z,203.3
2023-04-25T04:40:56.883Z,227.5
2023-04-25T04:43:52.648Z,262
2023-04-25T04:46:33.764Z,308.4
2023-04-25T04:49:01.184Z,365.6
2023-04-25T04:51:14.421Z,413.6
2023-04-25T04:53:14.012Z,486
2023-04-25T04:56:01.581Z,591.6
2023-04-25T04:58:35.339Z,657.6
2023-04-25T05:00:55.106Z,733.7
2023-04-25T05:03:00.897Z,775.6
2023-04-25T05:05:54.859Z,818.8
2023-04-25T05:08:34.556Z,962.5
2023-04-25T05:11:00.424Z,1029.4
2023-04-25T05:13:12.205Z,1022
2023-04-25T05:15:10.144Z,1011.8
2023-04-25T05:17:56.020Z,1080.6
2023-04-25T05:20:27.868Z,1199.3
2023-04-25T05:22:45.960Z,1281.2
2023-04-25T05:24:49.954Z,1348.4
2023-04-25T05:27:42.004Z,1457.2
2023-04-25T05:30:20.234Z,1629.4
2023-04-25T05:32:44.473Z,1724
2023-04-25T05:34:54.561Z,1819
2023-04-25T05:36:50.815Z,1922
2023-04-25T05:39:35.050Z,2117
2023-04-25T05:42:04.877Z,2072
2023-04-25T05:44:21.105Z,2109
2023-04-25T05:46:23.491Z,2082
2023-04-25T05:49:13.774Z,2023
2023-04-25T05:51:49.937Z,1947
2023-04-25T05:54:12.353Z,1928
2023-04-25T05:56:20.751Z,1889
2023-04-25T05:59:17.079Z,1853
2023-04-25T06:01:59.723Z,1960
2023-04-25T06:04:28.320Z,2088
2023-04-25T06:06:42.656Z,2209
2023-04-25T06:08:43.407Z,2349
2023-04-25T06:11:31.984Z,2472
2023-04-25T06:14:06.579Z,2545
2023-04-25T06:16:27.274Z,2543
2023-04-25T06:18:33.853Z,2720
2023-04-25T06:21:28.530Z,2564
2023-04-25T06:24:09.061Z,2424
2023-04-25T06:26:35.708Z,2336
2023-04-25T06:28:48.448Z,2357
2023-04-25T06:30:47.115Z,2378
2023-04-25T06:33:33.600Z,2523
2023-04-25T06:36:06.516Z,2590
2023-04-25T06:38:25.587Z,2684
2023-04-25T06:40:30.331Z,2691
2023-04-25T06:43:23.276Z,2677
2023-04-25T06:46:02.228Z,2723
2023-04-25T06:48:27.068Z,3088
2023-04-25T06:50:38.115Z,3270
2023-04-25T06:52:35.162Z,2900
2023-04-25T06:55:20.208Z,2589
2023-04-25T06:57:51.385Z,2625
2023-04-25T07:00:08.457Z,2973
2023-04-25T07:02:11.619Z,2773
2023-04-25T07:05:02.778Z,2864
2023-04-25T07:07:40.057Z,2748
2023-04-25T07:10:03.279Z,2668
2023-04-25T07:12:12.698Z,2588
2023-04-25T07:15:10.100Z,2924
2023-04-25T07:17:53.449Z,2602
2023-04-25T07:20:22.616Z,2587
2023-04-25T07:22:37.993Z,2789
2023-04-25T07:24:39.016Z,2810
2023-04-25T07:27:28.382Z,2798
2023-04-25T07:30:03.915Z,2792
2023-04-25T07:32:25.705Z,2332
2023-04-25T07:34:32.729Z,2469
2023-04-25T07:37:28.241Z,2615
2023-04-25T07:40:09.731Z,2666
2023-04-25T07:42:37.545Z,2714
2023-04-25T07:44:50.716Z,2755
2023-04-25T07:46:50.298Z,2681
2023-04-25T07:49:37.920Z,2995
2023-04-25T07:52:11.519Z,3627
2023-04-25T07:54:31.310Z,4217
2023-04-25T07:56:45.399Z,4079
2023-04-25T07:59:30.763Z,4168
2023-04-25T08:02:10.667Z,4236
2023-04-25T08:04:36.591Z,3566
2023-04-25T08:06:48.218Z,3870
2023-04-25T08:08:46.186Z,3776
2023-04-25T08:11:32.221Z,4001
2023-04-25T08:13:45.071Z,4029
2023-04-25T08:15:43.601Z,3833
2023-04-25T08:18:30.573Z,2711
2023-04-25T08:21:03.670Z,2256
2023-04-25T08:23:22.715Z,2280
2023-04-25T08:25:27.632Z,2244
2023-04-25T08:28:20.753Z,2074
2023-04-25T08:30:59.768Z,1987
2023-04-25T08:33:24.877Z,2329
2023-04-25T08:35:35.999Z,2435
2023-04-25T08:37:33.118Z,2896
2023-04-25T08:40:18.245Z,3338
2023-04-25T08:42:49.310Z,3861
2023-04-25T08:45:07.190Z,4288
2023-04-25T08:47:09.899Z,4384
2023-04-25T08:50:01.038Z,4364
2023-04-25T08:52:38.443Z,4774
2023-04-25T08:55:01.714Z,5073
2023-04-25T08:57:10.902Z,4328
2023-04-25T09:00:08.250Z,4596
2023-04-25T09:02:52.042Z,4712
2023-04-25T09:05:21.818Z,4099
2023-04-25T09:07:35.903Z,3907
2023-04-25T09:09:37.314Z,4436
2023-04-25T09:12:26.866Z,4152
2023-04-25T09:15:02.004Z,4798
2023-04-25T09:17:23.570Z,4929
2023-04-25T09:22:26.761Z,4951
2023-04-25T09:25:08.047Z,3475
2023-04-25T09:27:35.662Z,3776
2023-04-25T09:29:49.134Z,3630
2023-04-25T09:31:48.938Z,2717
2023-04-25T09:34:36.566Z,2005
2023-04-25T09:37:10.208Z,2049
2023-04-25T09:39:29.737Z,1978
2023-04-25T09:41:35.480Z,2375
2023-04-25T09:44:29.157Z,4103
2023-04-25T09:47:08.860Z,5263
2023-04-25T09:51:46.629Z,4463
2023-04-25T09:53:44.661Z,3896
2023-04-25T09:56:30.359Z,3610
2023-04-25T09:59:01.755Z,4577
2023-04-25T10:01:19.667Z,4130
2023-04-25T10:03:23.826Z,3887
2023-04-25T10:06:15.584Z,5044
2023-04-25T10:08:53.531Z,4686
2023-04-25T10:11:17.433Z,3804
2023-04-25T10:13:27.544Z,3747
2023-04-25T10:15:23.617Z,3409
2023-04-25T10:18:07.604Z,3041
2023-04-25T10:20:37.727Z,3389
2023-04-25T10:22:53.802Z,3580
2023-04-25T10:24:55.876Z,3385
2023-04-25T10:27:46.134Z,2538
2023-04-25T10:30:22.339Z,2117
2023-04-25T10:32:44.486Z,1738
2023-04-25T10:34:52.883Z,1648
2023-04-25T10:37:49.115Z,2080
2023-04-25T10:40:31.409Z,2320
2023-04-25T10:42:59.681Z,2565
2023-04-25T10:45:14.004Z,3073
2023-04-25T10:47:14.430Z,2551
2023-04-25T10:50:02.459Z,2429
2023-04-25T10:52:37.073Z,2337
2023-04-25T10:54:57.700Z,2076
2023-04-25T10:57:04.333Z,2001
2023-04-25T10:59:59.151Z,2615
2023-04-25T11:02:39.924Z,3667
2023-04-25T11:05:06.414Z,4778
2023-04-25T11:07:18.939Z,5345
2023-04-25T11:09:17.560Z,4875
2023-04-25T11:12:04.013Z,4407
2023-04-25T11:14:36.531Z,4672
2023-04-25T11:16:55.302Z,3827
2023-04-25T11:19:00.088Z,2941
2023-04-25T11:21:52.638Z,2734
2023-04-25T11:24:31.451Z,2762
2023-04-25T11:26:56.293Z,3065
2023-04-25T11:29:07.099Z,2850
2023-04-25T11:31:04.223Z,2860
2023-04-25T11:33:49.275Z,4035
2023-04-25T11:36:19.950Z,4812
2023-04-25T11:38:36.832Z,4208
2023-04-25T11:40:39.501Z,4839
2023-04-25T11:43:30.557Z,5726
2023-04-25T11:46:07.453Z,5044
2023-04-25T11:48:30.518Z,5483
2023-04-25T11:50:39.554Z,5245
2023-04-25T11:53:36.518Z,3936
2023-04-25T11:56:19.698Z,3992
2023-04-25T11:58:48.833Z,3477
2023-04-25T12:01:03.981Z,2794
2023-04-25T12:03:05.369Z,2743
2023-04-25T12:05:54.570Z,3008
2023-04-25T12:08:29.778Z,2767
2023-04-25T12:10:51.043Z,2457
2023-04-25T12:12:58.471Z,2312
2023-04-25T12:15:53.785Z,2275
2023-04-25T12:18:35.107Z,2169
2023-04-25T12:21:02.534Z,1891
2023-04-25T12:23:16.017Z,1827
2023-04-25T12:25:15.418Z,1825
2023-04-25T12:28:02.909Z,1715
2023-04-25T12:30:36.400Z,1688
2023-04-25T12:32:55.524Z,1953
2023-04-25T12:35:01.331Z,2307
2023-04-25T12:37:54.882Z,2705
2023-04-25T12:40:34.534Z,3415
2023-04-25T12:43:00.087Z,4029
2023-04-25T12:45:11.817Z,4487
2023-04-25T12:47:09.645Z,5052
2023-04-25T12:49:55.201Z,4977
2023-04-25T12:52:27.041Z,4817
2023-04-25T12:54:44.893Z,5537
2023-04-25T12:56:48.699Z,5365
2023-04-25T12:59:40.674Z,4983
2023-04-25T13:02:18.698Z,4524
2023-04-25T13:04:42.357Z,3959
2023-04-25T13:06:52.378Z,4273
2023-04-25T13:08:48.393Z,4243
2023-04-25T13:11:32.320Z,4743
2023-04-25T13:14:02.087Z,5488
2023-04-25T13:16:18.104Z,4963
2023-04-25T13:18:20.089Z,4303
2023-04-25T13:21:09.920Z,3386
2023-04-25T13:23:45.535Z,2653
2023-04-25T13:26:07.569Z,2927
2023-04-25T13:28:15.604Z,3110
2023-04-25T13:31:12.043Z,3943
2023-04-25T13:33:53.973Z,5739
2023-04-25T13:36:22.044Z,5240
2023-04-25T13:38:35.879Z,3546
2023-04-25T13:40:36.133Z,3838
2023-04-25T13:43:24.271Z,3598
2023-04-25T13:45:58.431Z,3800
2023-04-25T13:48:18.753Z,3823
2023-04-25T13:50:25.069Z,3824
2023-04-25T13:53:19.195Z,3779
2023-04-25T13:55:59.547Z,3105
2023-04-25T13:58:25.948Z,2869
2023-04-25T14:00:38.334Z,3228
2023-04-25T14:02:36.999Z,3535
2023-04-25T14:05:23.316Z,3965
2023-04-25T14:07:55.756Z,4209
2023-04-25T14:10:14.174Z,3486
2023-04-25T14:12:18.883Z,3518
2023-04-25T14:15:10.929Z,3630
2023-04-25T14:17:49.457Z,3920
2023-04-25T14:20:14.135Z,4003
2023-04-25T14:22:24.832Z,3994
2023-04-25T14:24:21.517Z,3541
2023-04-25T14:27:06.324Z,2606
2023-04-25T14:29:37.085Z,2343
2023-04-25T14:31:53.889Z,2328
2023-04-25T14:33:58.619Z,2147
2023-04-25T14:36:47.797Z,2552
2023-04-25T14:39:24.641Z,2716
2023-04-25T14:41:47.423Z,2755
2023-04-25T14:43:56.510Z,2437
2023-04-25T14:46:53.488Z,2163
2023-04-25T14:49:36.277Z,1959
2023-04-25T14:52:05.427Z,2022
2023-04-25T14:54:20.541Z,2208
2023-04-25T14:56:21.619Z,2332
2023-04-25T14:59:10.829Z,2238
2023-04-25T15:01:45.931Z,2229
2023-04-25T15:04:07.183Z,2247
2023-04-25T15:06:14.011Z,2448
2023-04-25T15:09:09.186Z,2456
2023-04-25T15:11:50.407Z,2564
2023-04-25T15:14:17.561Z,2345
2023-04-25T15:16:31.005Z,2332
2023-04-25T15:18:30.364Z,2851
2023-04-25T15:21:17.587Z,2739
2023-04-25T15:23:51.199Z,2688
2023-04-25T15:26:10.405Z,2718
2023-04-25T15:28:15.773Z,2926
2023-04-25T15:31:09.329Z,3398
2023-04-25T15:33:48.861Z,3157
2023-04-25T15:36:14.354Z,2325
2023-04-25T15:38:25.816Z,1814
2023-04-25T15:40:23.501Z,1832
2023-04-25T15:43:09.084Z,2017
2023-04-25T15:45:40.709Z,2391
2023-04-25T15:47:58.499Z,2252
2023-04-25T15:50:02.309Z,1756
2023-04-25T15:52:53.932Z,1863
2023-04-25T15:55:31.791Z,2804
2023-04-25T15:57:55.201Z,2410
2023-04-25T16:00:04.988Z,2161
2023-04-25T16:02:01.083Z,2211
2023-04-25T16:04:45.014Z,2259
2023-04-25T16:07:14.724Z,1897
2023-04-25T16:11:32.530Z,1748
2023-04-25T16:14:22.492Z,1892
2023-04-25T16:16:59.390Z,1712
2023-04-25T16:19:20.427Z,1603.2
2023-04-25T16:21:28.487Z,1677
2023-04-25T16:24:24.503Z,1676
2023-04-25T16:27:06.727Z,1691
2023-04-25T16:29:34.875Z,1528.3
2023-04-25T16:31:49.044Z,1210.8
2023-04-25T16:33:49.574Z,1218.8
2023-04-25T16:36:37.388Z,1163.2
2023-04-25T16:39:11.568Z,1126.4
2023-04-25T16:41:31.690Z,1197.7
2023-04-25T16:43:38.098Z,1174.4
2023-04-25T16:46:32.533Z,772.4
2023-04-25T16:49:12.477Z,753.6
2023-04-25T16:51:38.945Z,918
2023-04-25T16:53:51.378Z,772.4
2023-04-25T16:55:49.876Z,807.3
2023-04-25T16:58:36.494Z,802.8
2023-04-25T17:01:09.107Z,687.3
2023-04-25T17:03:27.883Z,821.4
2023-04-25T17:05:32.512Z,880.6
2023-04-25T17:08:25.180Z,814
2023-04-25T17:11:03.806Z,784
2023-04-25T17:13:30.684Z,876.1
2023-04-25T17:15:39.263Z,968.9
2023-04-25T17:17:36.017Z,1020.8
2023-04-25T17:20:20.664Z,1111.6
2023-04-25T17:22:51.533Z,1200.3
2023-04-25T17:25:08.526Z,1209.9
2023-04-25T17:27:11.446Z,1151
2023-04-25T17:30:02.599Z,942
2023-04-25T17:32:39.613Z,845.7
2023-04-25T17:35:02.672Z,777.9
2023-04-25T17:37:11.974Z,722.8
2023-04-25T17:40:08.722Z,595
2023-04-25T17:42:51.751Z,548.8
2023-04-25T17:45:20.881Z,514.7
2023-04-25T17:47:36.315Z,476.8
2023-04-25T17:49:37.567Z,466.5
2023-04-25T17:52:26.772Z,447.3
2023-04-25T17:55:02.252Z,414.7
2023-04-25T17:57:23.661Z,389.9
2023-04-25T17:59:31.012Z,373.2
2023-04-25T18:02:26.704Z,330
2023-04-25T18:05:08.092Z,294.3
2023-04-25T18:07:35.429Z,273.4
2023-04-25T18:09:48.858Z,254.4
2023-04-25T18:11:48.482Z,229.4
2023-04-25T18:14:36.032Z,205.8
2023-04-25T18:17:09.524Z,181.1
2023-04-25T18:19:29.184Z,165.6
2023-04-25T18:21:34.789Z,146.36
2023-04-25T18:24:28.682Z,124.44
2023-04-25T18:27:08.268Z,106.24
2023-04-25T18:29:34.315Z,87.96
2023-04-25T18:31:46.044Z,73.8
2023-04-25T18:33:43.264Z,63.88
2023-04-25T18:36:29.163Z,52.5
2023-04-25T18:38:42.143Z,41.42
2023-04-25T18:40:47.088Z,33.84
2023-04-25T18:43:27.875Z,24.97
2023-04-25T18:46:00.968Z,18.81
2023-04-25T18:48:20.029Z,13.79
2023-04-25T18:50:24.923Z,10.71
2023-04-25T18:53:18.090Z,7.06
2023-04-25T18:55:57.218Z,4.52
2023-04-25T18:58:22.148Z,2.94
2023-04-25T19:00:33.407Z,2.09
2023-04-25T19:02:30.659Z,1.5
2023-04-25T19:05:15.774Z,0.92
2023-04-25T19:07:46.775Z,0.64
2023-04-25T19:10:04.004Z,0.46
2023-04-25T19:12:07.224Z,0.35
2023-04-25T19:14:58.371Z,0.24
2023-04-25T19:17:35.724Z,0.18
2023-04-25T19:19:59.064Z,0.13
2023-04-25T19:22:07.814Z,0.09
2023-04-25T19:25:10.237Z,0.06
2023-04-25T19:27:48.648Z,0.05
2023-04-25T19:30:17.964Z,0.03
2023-04-25T19:37:24.149Z,0.02
2023-04-25T19:42:21.172Z,0.03
2023-04-25T19:44:28.717Z,0.02
2023-04-25T19:59:35.461Z,0.01
2023-04-25T21:05:33.461Z,0.02
2023-04-25T21:15:05.750Z,0.01
2023-04-25T21:32:22.859Z,0.02
2023-04-25T21:34:21.887Z,0.01
2023-04-25T21:37:08.608Z,0.02
2023-04-25T21:39:41.384Z,0.01
2023-04-25T22:58:10.964Z,0.02
2023-04-25T23:10:28.508Z,0.01
